Time,TemperatureF,DewpointF,PressureIn,WindDirection,WindDirectionDegrees,WindSpeedMPH,WindSpeedGustMPH,Humidity,HourlyPrecipIn,Conditions,Clouds,dailyrainin,SoftwareType,DateUTC
2013-07-11 00:01:00,62.1,60.0,29.80,North,0,0.0,0.0,93,0.00,CLR,,0.00,WeatherDisplay:10.37,2013-07-11 04:01:00,
2013-07-11 00:02:00,62.1,60.0,29.80,North,0,0.0,0.0,93,0.00,CLR,,0.00,WeatherDisplay:10.37,2013-07-11 04:02:00,
2013-07-11 00:07:00,62.1,60.3,29.80,North,0,0.0,0.0,94,0.00,CLR,,0.00,WeatherDisplay:10.37,2013-07-11 04:07:00,
2013-07-11 00:12:00,62.1,60.3,29.80,North,0,0.0,0.0,94,0.00,CLR,,0.00,WeatherDisplay:10.37,2013-07-11 04:12:00,
2013-07-11 00:17:00,61.9,60.4,29.81,North,0,0.0,0.0,95,0.00,CLR,,0.00,WeatherDisplay:10.37,2013-07-11 04:17:00,
2013-07-11 00:22:00,61.7,60.3,29.81,North,0,0.0,0.0,95,0.00,CLR,,0.00,WeatherDisplay:10.37,2013-07-11 04:22:00,
2013-07-11 00:27:00,61.5,60.1,29.81,North,0,0.0,0.0,95,0.00,CLR,,0.00,WeatherDisplay:10.37,2013-07-11 04:27:00,
2013-07-11 00:32:00,61.3,60.2,29.81,North,0,0.0,0.0,96,0.00,CLR,,0.00,WeatherDisplay:10.37,2013-07-11 04:32:00,
2013-07-11 00:37:00,61.3,60.2,29.81,North,0,0.0,0.0,96,0.00,CLR,,0.00,WeatherDisplay:10.37,2013-07-11 04:37:00,
2013-07-11 00:42:00,61.2,60.0,29.81,North,0,0.0,0.0,96,0.00,CLR,,0.00,WeatherDisplay:10.37,2013-07-11 04:42:00,
2013-07-11 00:47:00,61.0,59.8,29.81,North,0,0.0,0.0,96,0.00,CLR,,0.00,WeatherDisplay:10.37,2013-07-11 04:47:00,
2013-07-11 00:52:00,61.0,59.8,29.81,North,0,0.0,0.0,96,0.00,CLR,,0.00,WeatherDisplay:10.37,2013-07-11 04:52:00,
2013-07-11 00:57:00,60.8,59.9,29.82,North,0,0.0,0.0,97,0.00,CLR,,0.00,WeatherDisplay:10.37,2013-07-11 04:57:00,
2013-07-11 01:02:00,60.4,59.9,29.82,North,0,0.0,0.0,98,0.00,CLR,,0.00,WeatherDisplay:10.37,2013-07-11 05:02:00,
2013-07-11 01:07:00,60.4,59.9,29.83,North,0,0.0,0.0,98,0.00,CLR,,0.00,WeatherDisplay:10.37,2013-07-11 05:07:00,
2013-07-11 01:12:00,60.4,59.9,29.83,North,0,0.0,0.0,98,0.00,CLR,,0.00,WeatherDisplay:10.37,2013-07-11 05:12:00,
2013-07-11 01:17:00,60.4,59.9,29.83,North,0,0.0,0.0,98,0.00,CLR,,0.00,WeatherDisplay:10.37,2013-07-11 05:17:00,
2013-07-11 01:22:00,60.4,59.9,29.83,North,0,0.0,0.0,98,0.00,CLR,,0.00,WeatherDisplay:10.37,2013-07-11 05:22:00,
2013-07-11 01:27:00,60.3,59.7,29.83,North,0,0.0,0.0,98,0.00,CLR,,0.00,WeatherDisplay:10.37,2013-07-11 05:27:00,
2013-07-11 01:32:00,60.3,60.0,29.83,North,0,0.0,0.0,99,0.00,CLR,,0.00,WeatherDisplay:10.37,2013-07-11 05:32:00,
2013-07-11 01:37:00,60.3,60.0,29.83,North,0,0.0,0.0,99,0.00,CLR,,0.00,WeatherDisplay:10.37,2013-07-11 05:37:00,
2013-07-11 01:42:00,60.3,60.0,29.83,North,0,0.0,0.0,99,0.00,CLR,,0.00,WeatherDisplay:10.37,2013-07-11 05:42:00,
2013-07-11 01:47:00,60.1,59.8,29.83,North,0,0.0,0.0,99,0.00,CLR,,0.00,WeatherDisplay:10.37,2013-07-11 05:47:00,
2013-07-11 01:52:00,59.9,59.6,29.84,North,0,0.0,0.0,99,0.00,CLR,,0.00,WeatherDisplay:10.37,2013-07-11 05:52:00,
2013-07-11 01:57:00,59.7,59.4,29.84,North,0,0.0,0.0,99,0.00,CLR,,0.00,WeatherDisplay:10.37,2013-07-11 05:57:00,
2013-07-11 02:02:00,59.5,59.3,29.84,North,0,0.0,0.0,99,0.00,CLR,,0.00,WeatherDisplay:10.37,2013-07-11 06:02:00,
2013-07-11 02:07:00,59.5,59.3,29.84,North,0,0.0,0.0,99,0.00,CLR,,0.00,WeatherDisplay:10.37,2013-07-11 06:07:00,
2013-07-11 02:12:00,59.5,59.3,29.84,North,0,0.0,0.0,99,0.00,CLR,,0.00,WeatherDisplay:10.37,2013-07-11 06:12:00,
2013-07-11 02:17:00,59.5,59.3,29.84,North,0,0.0,0.0,99,0.00,CLR,,0.00,WeatherDisplay:10.37,2013-07-11 06:17:00,
2013-07-11 02:22:00,59.5,59.3,29.84,North,0,0.0,1.1,99,0.00,CLR,,0.00,WeatherDisplay:10.37,2013-07-11 06:22:00,
2013-07-11 02:27:00,59.5,59.3,29.84,North,0,0.0,0.0,99,0.00,CLR,,0.00,WeatherDisplay:10.37,2013-07-11 06:27:00,
2013-07-11 02:32:00,59.5,59.3,29.84,North,0,0.0,0.0,99,0.00,CLR,,0.00,WeatherDisplay:10.37,2013-07-11 06:32:00,
2013-07-11 02:37:00,59.4,59.1,29.85,North,0,0.0,0.0,99,0.00,CLR,,0.00,WeatherDisplay:10.37,2013-07-11 06:37:00,
2013-07-11 02:42:00,59.2,58.9,29.85,North,0,0.0,0.0,99,0.00,CLR,,0.00,WeatherDisplay:10.37,2013-07-11 06:42:00,
2013-07-11 02:47:00,59.2,58.9,29.85,North,0,0.0,0.0,99,0.00,CLR,,0.00,WeatherDisplay:10.37,2013-07-11 06:47:00,
2013-07-11 02:52:00,59.2,58.9,29.85,North,0,0.0,0.0,99,0.00,CLR,,0.00,WeatherDisplay:10.37,2013-07-11 06:52:00,
2013-07-11 02:57:00,59.2,58.9,29.85,North,0,0.0,0.0,99,0.00,CLR,,0.00,WeatherDisplay:10.37,2013-07-11 06:57:00,
2013-07-11 03:02:00,59.0,58.7,29.85,North,0,0.0,0.0,99,0.00,CLR,,0.00,WeatherDisplay:10.37,2013-07-11 07:02:00,
2013-07-11 03:07:00,59.0,58.7,29.85,North,0,0.0,0.0,99,0.00,CLR,,0.00,WeatherDisplay:10.37,2013-07-11 07:07:00,
2013-07-11 03:12:00,59.2,58.9,29.85,North,0,0.0,0.0,99,0.00,CLR,,0.00,WeatherDisplay:10.37,2013-07-11 07:12:00,
2013-07-11 03:17:00,59.2,58.9,29.85,North,0,0.0,0.0,99,0.00,CLR,,0.00,WeatherDisplay:10.37,2013-07-11 07:17:00,
2013-07-11 03:22:00,59.2,58.9,29.85,North,0,0.0,0.0,99,0.00,CLR,,0.00,WeatherDisplay:10.37,2013-07-11 07:22:00,
2013-07-11 03:27:00,59.0,58.7,29.86,North,0,0.0,0.0,99,0.00,CLR,,0.00,WeatherDisplay:10.37,2013-07-11 07:27:00,
2013-07-11 03:32:00,58.8,58.5,29.86,North,0,0.0,0.0,99,0.00,CLR,,0.00,WeatherDisplay:10.37,2013-07-11 07:32:00,
2013-07-11 03:37:00,58.8,58.5,29.86,North,0,0.0,0.0,99,0.00,CLR,,0.00,WeatherDisplay:10.37,2013-07-11 07:37:00,
2013-07-11 03:42:00,58.6,58.4,29.87,North,0,0.0,0.0,99,0.00,CLR,,0.00,WeatherDisplay:10.37,2013-07-11 07:42:00,
2013-07-11 03:47:00,58.6,58.4,29.87,North,0,0.0,1.1,99,0.00,CLR,,0.00,WeatherDisplay:10.37,2013-07-11 07:47:00,
2013-07-11 03:52:00,58.6,58.4,29.87,North,0,0.0,1.1,99,0.00,CLR,,0.00,WeatherDisplay:10.37,2013-07-11 07:52:00,
2013-07-11 03:57:00,58.8,58.5,29.87,North,0,0.0,0.0,99,0.00,CLR,,0.00,WeatherDisplay:10.37,2013-07-11 07:57:00,
2013-07-11 04:02:00,58.8,58.5,29.87,North,0,0.0,0.0,99,0.00,CLR,,0.00,WeatherDisplay:10.37,2013-07-11 08:02:00,
2013-07-11 04:07:00,58.8,58.5,29.88,North,0,0.0,0.0,99,0.00,CLR,,0.00,WeatherDisplay:10.37,2013-07-11 08:07:00,
2013-07-11 04:12:00,59.0,58.7,29.87,North,0,0.0,0.0,99,0.00,CLR,,0.00,WeatherDisplay:10.37,2013-07-11 08:12:00,
2013-07-11 04:17:00,59.0,58.7,29.88,North,0,0.0,0.0,99,0.00,CLR,,0.00,WeatherDisplay:10.37,2013-07-11 08:17:00,
2013-07-11 04:22:00,59.2,58.9,29.88,North,0,0.0,1.1,99,0.00,CLR,,0.00,WeatherDisplay:10.37,2013-07-11 08:22:00,
2013-07-11 04:27:00,59.0,58.7,29.88,North,0,0.0,0.0,99,0.00,CLR,,0.00,WeatherDisplay:10.37,2013-07-11 08:27:00,
2013-07-11 04:32:00,58.8,58.5,29.88,North,0,0.0,0.0,99,0.00,CLR,,0.00,WeatherDisplay:10.37,2013-07-11 08:32:00,
2013-07-11 04:37:00,58.8,58.5,29.88,North,0,0.0,0.0,99,0.00,CLR,,0.00,WeatherDisplay:10.37,2013-07-11 08:37:00,
2013-07-11 04:42:00,58.8,58.5,29.88,North,0,0.0,0.0,99,0.00,CLR,,0.00,WeatherDisplay:10.37,2013-07-11 08:42:00,
2013-07-11 04:47:00,58.6,58.4,29.88,North,0,0.0,0.0,99,0.00,CLR,,0.00,WeatherDisplay:10.37,2013-07-11 08:47:00,
2013-07-11 04:52:00,58.6,58.4,29.88,North,0,0.0,0.0,99,0.00,CLR,,0.00,WeatherDisplay:10.37,2013-07-11 08:52:00,
2013-07-11 04:57:00,58.8,58.5,29.89,North,0,0.0,0.0,99,0.00,CLR,,0.00,WeatherDisplay:10.37,2013-07-11 08:57:00,
2013-07-11 05:02:00,58.6,58.4,29.89,North,0,0.0,0.0,99,0.00,CLR,,0.00,WeatherDisplay:10.37,2013-07-11 09:02:00,
2013-07-11 05:07:00,58.6,58.4,29.89,North,0,0.0,0.0,99,0.00,CLR,,0.00,WeatherDisplay:10.37,2013-07-11 09:07:00,
2013-07-11 05:12:00,58.6,58.4,29.89,North,0,0.0,0.0,99,0.00,CLR,,0.00,WeatherDisplay:10.37,2013-07-11 09:12:00,
2013-07-11 05:17:00,58.6,58.4,29.89,North,0,0.0,0.0,99,0.00,CLR,,0.00,WeatherDisplay:10.37,2013-07-11 09:17:00,
2013-07-11 05:22:00,58.6,58.4,29.89,North,0,0.0,0.0,99,0.00,CLR,,0.00,WeatherDisplay:10.37,2013-07-11 09:22:00,
2013-07-11 05:27:00,58.6,58.4,29.89,North,0,0.0,0.0,99,0.00,CLR,,0.00,WeatherDisplay:10.37,2013-07-11 09:27:00,
2013-07-11 05:32:00,58.8,58.5,29.90,North,0,0.0,0.0,99,0.00,CLR,,0.00,WeatherDisplay:10.37,2013-07-11 09:32:00,
2013-07-11 05:37:00,58.6,58.4,29.89,North,0,0.0,0.0,99,0.00,CLR,,0.00,WeatherDisplay:10.37,2013-07-11 09:37:00,
2013-07-11 05:42:00,58.6,58.4,29.90,North,0,0.0,0.0,99,0.00,CLR,,0.00,WeatherDisplay:10.37,2013-07-11 09:42:00,
2013-07-11 05:47:00,58.6,58.4,29.90,North,0,0.0,0.0,99,0.00,CLR,,0.00,WeatherDisplay:10.37,2013-07-11 09:47:00,
2013-07-11 05:52:00,58.5,58.2,29.91,North,0,0.0,0.0,99,0.00,CLR,,0.00,WeatherDisplay:10.37,2013-07-11 09:52:00,
2013-07-11 05:57:00,58.5,58.2,29.91,North,0,0.0,0.0,99,0.00,CLR,,0.00,WeatherDisplay:10.37,2013-07-11 09:57:00,
2013-07-11 06:02:00,58.5,58.2,29.91,North,0,0.0,0.0,99,0.00,CLR,,0.00,WeatherDisplay:10.37,2013-07-11 10:02:00,
2013-07-11 06:07:00,58.5,58.2,29.91,North,0,0.0,0.0,99,0.00,CLR,,0.00,WeatherDisplay:10.37,2013-07-11 10:07:00,
2013-07-11 06:12:00,58.1,57.8,29.91,North,0,0.0,0.0,99,0.00,CLR,,0.00,WeatherDisplay:10.37,2013-07-11 10:12:00,
2013-07-11 06:17:00,57.9,57.6,29.91,North,0,0.0,0.0,99,0.00,CLR,,0.00,WeatherDisplay:10.37,2013-07-11 10:17:00,
2013-07-11 06:22:00,57.9,57.6,29.91,North,0,0.0,0.0,99,0.00,CLR,,0.00,WeatherDisplay:10.37,2013-07-11 10:22:00,
2013-07-11 06:27:00,57.7,57.5,29.91,North,0,0.0,0.0,99,0.00,CLR,,0.00,WeatherDisplay:10.37,2013-07-11 10:27:00,
2013-07-11 06:32:00,57.7,57.5,29.91,North,0,0.0,0.0,99,0.00,CLR,,0.00,WeatherDisplay:10.37,2013-07-11 10:32:00,
2013-07-11 06:37:00,57.7,57.5,29.92,North,0,0.0,0.0,99,0.00,CLR,,0.00,WeatherDisplay:10.37,2013-07-11 10:37:00,
2013-07-11 06:42:00,57.6,57.3,29.92,North,0,0.0,0.0,99,0.00,CLR,,0.00,WeatherDisplay:10.37,2013-07-11 10:42:00,
2013-07-11 06:47:00,57.7,57.5,29.93,North,0,0.0,0.0,99,0.00,CLR,,0.00,WeatherDisplay:10.37,2013-07-11 10:47:00,
2013-07-11 06:52:00,57.9,57.6,29.93,North,0,0.0,0.0,99,0.00,CLR,,0.00,WeatherDisplay:10.37,2013-07-11 10:52:00,
2013-07-11 06:57:00,57.9,57.6,29.93,North,0,0.0,0.0,99,0.00,CLR,,0.00,WeatherDisplay:10.37,2013-07-11 10:57:00,
2013-07-11 07:02:00,58.3,58.0,29.93,North,0,0.0,0.0,99,0.00,CLR,,0.00,WeatherDisplay:10.37,2013-07-11 11:02:00,
2013-07-11 07:07:00,58.5,58.2,29.93,North,0,0.0,0.0,99,0.00,CLR,,0.00,WeatherDisplay:10.37,2013-07-11 11:07:00,
2013-07-11 07:12:00,58.6,58.4,29.93,North,0,0.0,0.0,99,0.00,CLR,,0.00,WeatherDisplay:10.37,2013-07-11 11:12:00,
2013-07-11 07:17:00,59.0,58.7,29.93,North,0,0.0,0.0,99,0.00,CLR,,0.00,WeatherDisplay:10.37,2013-07-11 11:17:00,
2013-07-11 07:22:00,59.0,58.7,29.93,North,0,0.0,0.0,99,0.00,CLR,,0.00,WeatherDisplay:10.37,2013-07-11 11:22:00,
2013-07-11 07:27:00,59.2,58.9,29.93,North,0,0.0,0.0,99,0.00,CLR,,0.00,WeatherDisplay:10.37,2013-07-11 11:27:00,
2013-07-11 07:33:00,59.5,59.3,29.93,North,0,0.0,0.0,99,0.00,CLR,,0.00,WeatherDisplay:10.37,2013-07-11 11:33:00,
2013-07-11 07:38:00,59.7,59.4,29.93,North,0,0.0,0.0,99,0.00,CLR,,0.00,WeatherDisplay:10.37,2013-07-11 11:38:00,
2013-07-11 07:43:00,59.9,59.6,29.93,North,0,0.0,0.0,99,0.00,CLR,,0.00,WeatherDisplay:10.37,2013-07-11 11:43:00,
2013-07-11 07:48:00,60.3,60.0,29.93,North,0,0.0,0.0,99,0.00,CLR,,0.00,WeatherDisplay:10.37,2013-07-11 11:48:00,
2013-07-11 07:53:00,60.6,60.3,29.93,North,0,0.0,0.0,99,0.00,CLR,,0.00,WeatherDisplay:10.37,2013-07-11 11:53:00,
2013-07-11 07:58:00,61.0,60.4,29.93,North,0,0.0,0.0,98,0.00,CLR,,0.00,WeatherDisplay:10.37,2013-07-11 11:58:00,
2013-07-11 08:03:00,61.3,60.8,29.93,North,0,0.0,0.0,98,0.00,CLR,,0.00,WeatherDisplay:10.37,2013-07-11 12:03:00,
2013-07-11 08:08:00,61.9,61.3,29.93,North,0,0.0,0.0,98,0.00,CLR,,0.00,WeatherDisplay:10.37,2013-07-11 12:08:00,
2013-07-11 08:13:00,62.6,61.7,29.93,North,0,0.0,0.0,97,0.00,CLR,,0.00,WeatherDisplay:10.37,2013-07-11 12:13:00,
2013-07-11 08:18:00,62.8,61.9,29.94,North,0,0.0,0.0,97,0.00,CLR,,0.00,WeatherDisplay:10.37,2013-07-11 12:18:00,
2013-07-11 08:23:00,63.0,62.1,29.94,North,0,0.0,1.1,97,0.00,CLR,,0.00,WeatherDisplay:10.37,2013-07-11 12:23:00,
2013-07-11 08:28:00,63.1,62.3,29.94,NW,315,0.0,1.1,97,0.00,CLR,,0.00,WeatherDisplay:10.37,2013-07-11 12:28:00,
2013-07-11 08:33:00,63.5,62.6,29.94,North,0,0.0,0.0,97,0.00,CLR,,0.00,WeatherDisplay:10.37,2013-07-11 12:33:00,
2013-07-11 08:38:00,63.9,63.0,29.94,NW,315,0.0,1.1,97,0.00,CLR,,0.00,WeatherDisplay:10.37,2013-07-11 12:38:00,
2013-07-11 08:43:00,64.2,63.4,29.94,NW,315,0.0,1.1,97,0.00,CLR,,0.00,WeatherDisplay:10.37,2013-07-11 12:43:00,
2013-07-11 08:48:00,64.9,64.7,29.95,NW,315,0.0,1.1,99,0.00,CLR,,0.00,WeatherDisplay:10.37,2013-07-11 12:48:00,
2013-07-11 08:53:00,65.7,65.4,29.95,NW,315,0.0,1.1,99,0.00,CLR,,0.00,WeatherDisplay:10.37,2013-07-11 12:53:00,
2013-07-11 08:58:00,66.2,65.9,29.95,NW,315,0.0,0.0,99,0.00,CLR,,0.00,WeatherDisplay:10.37,2013-07-11 12:58:00,
2013-07-11 09:04:00,66.7,66.5,29.95,NW,315,0.0,0.0,99,0.00,CLR,,0.00,WeatherDisplay:10.37,2013-07-11 13:04:00,
2013-07-11 09:09:00,67.1,66.8,29.95,North,0,0.0,0.0,99,0.00,CLR,,0.00,WeatherDisplay:10.37,2013-07-11 13:09:00,
2013-07-11 09:14:00,67.8,66.9,29.95,NW,315,0.0,1.1,97,0.00,CLR,,0.00,WeatherDisplay:10.37,2013-07-11 13:14:00,
2013-07-11 09:19:00,68.2,66.4,29.95,NW,315,0.0,0.0,94,0.00,CLR,,0.00,WeatherDisplay:10.37,2013-07-11 13:19:00,
2013-07-11 09:24:00,68.5,66.4,29.96,North,0,0.0,0.0,93,0.00,CLR,,0.00,WeatherDisplay:10.37,2013-07-11 13:24:00,
2013-07-11 09:29:00,69.3,66.5,29.96,NW,315,0.0,0.0,91,0.00,CLR,,0.00,WeatherDisplay:10.37,2013-07-11 13:29:00,
2013-07-11 09:34:00,70.0,66.3,29.96,NW,315,0.0,1.1,88,0.00,CLR,,0.00,WeatherDisplay:10.37,2013-07-11 13:34:00,
2013-07-11 09:39:00,70.5,66.1,29.96,SW,225,0.0,0.0,86,0.00,CLR,,0.00,WeatherDisplay:10.37,2013-07-11 13:39:00,
2013-07-11 09:44:00,70.9,66.1,29.96,NW,315,0.0,0.0,85,0.00,CLR,,0.00,WeatherDisplay:10.37,2013-07-11 13:44:00,
2013-07-11 09:49:00,72.0,65.8,29.96,West,270,0.0,0.0,81,0.00,CLR,,0.00,WeatherDisplay:10.37,2013-07-11 13:49:00,
2013-07-11 09:55:00,73.4,65.7,29.96,NW,315,0.0,0.0,77,0.00,CLR,,0.00,WeatherDisplay:10.37,2013-07-11 13:55:00,
2013-07-11 10:00:00,74.3,65.9,29.96,North,0,0.0,1.1,75,0.00,CLR,,0.00,WeatherDisplay:10.37,2013-07-11 14:00:00,
2013-07-11 10:05:00,75.2,63.9,29.96,NW,315,0.0,0.0,68,0.00,CLR,,0.00,WeatherDisplay:10.37,2013-07-11 14:05:00,
2013-07-11 10:10:00,75.6,63.4,29.96,South,180,0.0,0.0,66,0.00,CLR,,0.00,WeatherDisplay:10.37,2013-07-11 14:10:00,
2013-07-11 10:15:00,75.6,63.0,29.96,NW,315,0.0,0.0,65,0.00,CLR,,0.00,WeatherDisplay:10.37,2013-07-11 14:15:00,
2013-07-11 10:21:00,76.5,62.9,29.96,SW,225,0.0,0.0,63,0.00,CLR,,0.00,WeatherDisplay:10.37,2013-07-11 14:21:00,
2013-07-11 10:26:00,77.0,63.4,29.96,East,90,0.0,0.0,63,0.00,CLR,,0.00,WeatherDisplay:10.37,2013-07-11 14:26:00,
2013-07-11 10:31:00,77.4,61.9,29.96,SW,225,0.0,0.0,59,0.00,CLR,,0.00,WeatherDisplay:10.37,2013-07-11 14:31:00,
2013-07-11 10:36:00,77.0,60.1,29.96,NE,45,0.0,0.0,56,0.00,CLR,,0.00,WeatherDisplay:10.37,2013-07-11 14:36:00,
2013-07-11 10:42:00,77.4,60.4,29.96,NW,315,0.0,0.0,56,0.00,CLR,,0.00,WeatherDisplay:10.37,2013-07-11 14:42:00,
2013-07-11 10:47:00,77.5,59.6,29.96,SE,135,0.0,0.0,54,0.00,CLR,,0.00,WeatherDisplay:10.37,2013-07-11 14:47:00,
2013-07-11 10:52:00,77.5,60.1,29.96,NE,45,0.0,0.0,55,0.00,CLR,,0.00,WeatherDisplay:10.37,2013-07-11 14:52:00,
2013-07-11 10:58:00,77.7,60.3,29.96,North,0,0.0,0.0,55,0.00,CLR,,0.00,WeatherDisplay:10.37,2013-07-11 14:58:00,
2013-07-11 11:03:00,78.3,60.2,29.96,North,0,0.0,0.0,54,0.00,CLR,,0.00,WeatherDisplay:10.37,2013-07-11 15:03:00,
2013-07-11 11:08:00,79.0,60.9,29.96,East,90,0.0,0.0,54,0.00,CLR,,0.00,WeatherDisplay:10.37,2013-07-11 15:08:00,
2013-07-11 11:13:00,79.7,61.6,29.96,East,90,0.0,0.0,54,0.00,CLR,,0.00,WeatherDisplay:10.37,2013-07-11 15:13:00,
2013-07-11 11:19:00,79.5,58.7,29.96,NW,315,0.0,0.0,49,0.00,CLR,,0.00,WeatherDisplay:10.37,2013-07-11 15:19:00,
2013-07-11 11:24:00,79.2,60.0,29.96,North,0,0.0,0.0,52,0.00,CLR,,0.00,WeatherDisplay:10.37,2013-07-11 15:24:00,
2013-07-11 11:29:00,79.2,58.9,29.96,North,0,0.0,1.1,50,0.00,CLR,,0.00,WeatherDisplay:10.37,2013-07-11 15:29:00,
2013-07-11 11:34:00,79.3,59.1,29.95,East,90,0.0,0.0,50,0.00,CLR,,0.00,WeatherDisplay:10.37,2013-07-11 15:34:00,
2013-07-11 11:39:00,79.9,59.6,29.95,East,90,0.0,0.0,50,0.00,CLR,,0.00,WeatherDisplay:10.37,2013-07-11 15:39:00,
2013-07-11 11:45:00,79.9,57.8,29.95,NNW,342,0.0,0.0,47,0.00,CLR,CLR,0.00,WeatherDisplay:10.37,2013-07-11 15:45:00,
2013-07-11 11:50:00,80.0,58.5,29.95,NW,325,0.0,0.0,48,0.00,CLR,CLR,0.00,WeatherDisplay:10.37,2013-07-11 15:50:00,
2013-07-11 11:55:00,80.2,57.6,29.95,NE,45,0.0,0.0,46,0.00,CLR,,0.00,WeatherDisplay:10.37,2013-07-11 15:55:00,
2013-07-11 12:00:00,80.2,57.6,29.94,NW,315,0.0,0.0,46,0.00,CLR,,0.00,WeatherDisplay:10.37,2013-07-11 16:00:00,
2013-07-11 12:06:00,80.4,57.1,29.94,SE,135,0.0,0.0,45,0.00,CLR,,0.00,WeatherDisplay:10.37,2013-07-11 16:06:00,
2013-07-11 12:11:00,79.7,57.1,29.94,West,270,0.0,0.0,46,0.00,CLR,,0.00,WeatherDisplay:10.37,2013-07-11 16:11:00,
2013-07-11 12:16:00,80.4,57.1,29.94,North,0,0.0,0.0,45,0.00,CLR,,0.00,WeatherDisplay:10.37,2013-07-11 16:16:00,
2013-07-11 12:21:00,80.8,54.9,29.94,SE,135,0.0,0.0,41,0.00,CLR,,0.00,WeatherDisplay:10.37,2013-07-11 16:21:00,
2013-07-11 12:28:00,80.6,55.4,29.94,West,270,0.0,0.0,42,0.00,CLR,,0.00,WeatherDisplay:10.37,2013-07-11 16:28:00,
2013-07-11 12:33:00,80.4,55.2,29.94,West,270,0.0,0.0,42,0.00,CLR,,0.00,WeatherDisplay:10.37,2013-07-11 16:33:00,
2013-07-11 12:38:00,80.6,54.7,29.94,NW,315,0.0,0.0,41,0.00,CLR,,0.00,WeatherDisplay:10.37,2013-07-11 16:38:00,
2013-07-11 12:44:00,81.0,55.7,29.93,NE,45,0.0,0.0,42,0.00,CLR,,0.00,WeatherDisplay:10.37,2013-07-11 16:44:00,
2013-07-11 12:49:00,80.8,55.5,29.93,North,0,0.0,0.0,42,0.00,CLR,,0.00,WeatherDisplay:10.37,2013-07-11 16:49:00,
2013-07-11 12:54:00,80.6,53.4,29.93,North,0,0.0,0.0,39,0.00,CLR,,0.00,WeatherDisplay:10.37,2013-07-11 16:54:00,
2013-07-11 12:59:00,80.1,55.5,29.93,North,0,0.0,0.0,43,0.00,CLR,,0.00,WeatherDisplay:10.37,2013-07-11 16:59:00,
2013-07-11 13:04:00,79.9,54.7,29.92,West,270,0.0,0.0,42,0.00,CLR,,0.00,WeatherDisplay:10.37,2013-07-11 17:04:00,
2013-07-11 13:09:00,79.5,54.4,29.92,West,270,0.0,0.0,42,0.00,CLR,,0.00,WeatherDisplay:10.37,2013-07-11 17:09:00,
2013-07-11 13:14:00,79.7,55.2,29.92,SW,225,0.0,0.0,43,0.00,CLR,,0.00,WeatherDisplay:10.37,2013-07-11 17:14:00,
2013-07-11 13:19:00,80.1,56.2,29.91,South,180,0.0,0.0,44,0.00,CLR,,0.00,WeatherDisplay:10.37,2013-07-11 17:19:00,
2013-07-11 13:24:00,80.6,56.0,29.91,NW,315,0.0,0.0,43,0.00,CLR,,0.00,WeatherDisplay:10.37,2013-07-11 17:24:00,
2013-07-11 13:29:00,81.0,56.4,29.92,West,270,0.0,0.0,43,0.00,CLR,,0.00,WeatherDisplay:10.37,2013-07-11 17:29:00,
2013-07-11 13:35:00,81.3,55.4,29.91,South,180,0.0,0.0,41,0.00,CLR,,0.00,WeatherDisplay:10.37,2013-07-11 17:35:00,
2013-07-11 13:40:00,80.8,55.5,29.91,WSW,246,0.0,0.0,42,0.00,CLR,CLR,0.00,WeatherDisplay:10.37,2013-07-11 17:40:00,
2013-07-11 13:45:00,80.4,56.5,29.91,NE,45,0.0,0.0,44,0.00,CLR,,0.00,WeatherDisplay:10.37,2013-07-11 17:45:00,
2013-07-11 13:50:00,80.2,57.0,29.91,NE,36,0.0,0.0,45,0.00,CLR,CLR,0.00,WeatherDisplay:10.37,2013-07-11 17:50:00,
2013-07-11 13:55:00,80.0,56.2,29.91,NW,308,0.0,0.0,44,0.00,CLR,CLR,0.00,WeatherDisplay:10.37,2013-07-11 17:55:00,
2013-07-11 14:00:00,79.3,56.2,29.91,West,280,0.0,0.0,45,0.00,CLR,CLR,0.00,WeatherDisplay:10.37,2013-07-11 18:00:00,
2013-07-11 14:05:00,79.7,57.7,29.91,NW,315,0.0,0.0,47,0.00,CLR,,0.00,WeatherDisplay:10.37,2013-07-11 18:05:00,
2013-07-11 14:11:00,79.7,57.7,29.90,NE,45,0.0,0.0,47,0.00,CLR,,0.00,WeatherDisplay:10.37,2013-07-11 18:11:00,
2013-07-11 14:16:00,79.5,58.7,29.90,NE,45,0.0,0.0,49,0.00,CLR,,0.00,WeatherDisplay:10.37,2013-07-11 18:16:00,
2013-07-11 14:22:00,80.2,56.3,29.90,North,0,0.0,0.0,44,0.00,CLR,,0.00,WeatherDisplay:10.37,2013-07-11 18:22:00,
2013-07-11 14:27:00,79.5,56.9,29.90,North,0,0.0,0.0,46,0.00,CLR,,0.00,WeatherDisplay:10.37,2013-07-11 18:27:00,
2013-07-11 14:32:00,79.2,56.6,29.89,NW,315,0.0,0.0,46,0.00,CLR,,0.00,WeatherDisplay:10.37,2013-07-11 18:32:00,
2013-07-11 14:37:00,79.0,56.4,29.89,West,270,0.0,0.0,46,0.00,CLR,,0.00,WeatherDisplay:10.37,2013-07-11 18:37:00,
2013-07-11 14:43:00,79.0,57.0,29.89,NW,315,0.0,0.0,47,0.00,CLR,,0.00,WeatherDisplay:10.37,2013-07-11 18:43:00,
2013-07-11 14:48:00,79.0,56.4,29.89,West,270,0.0,0.0,46,0.00,CLR,,0.00,WeatherDisplay:10.37,2013-07-11 18:48:00,
2013-07-11 14:54:00,78.6,56.1,29.89,West,270,0.0,0.0,46,0.00,CLR,,0.00,WeatherDisplay:10.37,2013-07-11 18:54:00,
2013-07-11 14:59:00,78.4,55.9,29.88,West,270,0.0,0.0,46,0.00,CLR,,0.00,WeatherDisplay:10.37,2013-07-11 18:59:00,
2013-07-11 15:04:00,78.1,55.6,29.88,NW,315,0.0,0.0,46,0.00,CLR,,0.00,WeatherDisplay:10.37,2013-07-11 19:04:00,
2013-07-11 15:09:00,78.4,55.9,29.88,West,270,0.0,0.0,46,0.00,CLR,,0.00,WeatherDisplay:10.37,2013-07-11 19:09:00,
2013-07-11 15:14:00,78.8,55.7,29.88,West,270,0.0,0.0,45,0.00,CLR,,0.00,WeatherDisplay:10.37,2013-07-11 19:14:00,
2013-07-11 15:20:00,79.2,55.4,29.88,West,270,0.0,0.0,44,0.00,CLR,CLR,0.00,WeatherDisplay:10.37,2013-07-11 19:20:00,
2013-07-11 15:25:00,79.7,55.9,29.88,South,180,0.0,0.0,44,0.00,CLR,,0.00,WeatherDisplay:10.37,2013-07-11 19:25:00,
2013-07-11 15:30:00,79.9,57.3,29.88,West,270,0.0,0.0,46,0.00,CLR,,0.00,WeatherDisplay:10.37,2013-07-11 19:30:00,
2013-07-11 15:35:00,80.1,56.2,29.88,SE,135,0.0,0.0,44,0.00,CLR,,0.00,WeatherDisplay:10.37,2013-07-11 19:35:00,
2013-07-11 15:41:00,79.9,56.0,29.87,West,270,0.0,0.0,44,0.00,CLR,,0.00,WeatherDisplay:10.37,2013-07-11 19:41:00,
2013-07-11 15:46:00,80.1,56.8,29.87,West,270,0.0,0.0,45,0.00,CLR,,0.00,WeatherDisplay:10.37,2013-07-11 19:46:00,
2013-07-11 15:51:00,80.2,55.7,29.87,NNW,338,0.0,0.0,43,0.00,CLR,,0.00,WeatherDisplay:10.37,2013-07-11 19:51:00,
2013-07-11 15:56:00,79.9,56.0,29.86,SW,225,0.0,0.7,44,0.00,CLR,,0.00,WeatherDisplay:10.37,2013-07-11 19:56:00,
2013-07-11 16:01:00,80.1,56.2,29.86,West,270,0.0,0.0,44,0.00,CLR,,0.00,WeatherDisplay:10.37,2013-07-11 20:01:00,
2013-07-11 16:06:00,79.5,57.5,29.85,NW,315,0.0,0.0,47,0.00,CLR,,0.00,WeatherDisplay:10.37,2013-07-11 20:06:00,
2013-07-11 16:11:00,79.3,57.9,29.86,East,90,0.0,0.0,48,0.00,CLR,,0.00,WeatherDisplay:10.37,2013-07-11 20:11:00,
2013-07-11 16:16:00,79.3,56.8,29.86,SW,225,0.0,0.0,46,0.00,CLR,,0.00,WeatherDisplay:10.37,2013-07-11 20:16:00,
2013-07-11 16:21:00,80.1,58.0,29.86,NW,315,0.0,0.0,47,0.00,CLR,,0.00,WeatherDisplay:10.37,2013-07-11 20:21:00,
2013-07-11 16:27:00,79.9,59.6,29.86,West,270,0.0,1.1,50,0.00,CLR,,0.00,WeatherDisplay:10.37,2013-07-11 20:27:00,
2013-07-11 16:32:00,79.7,60.0,29.86,WNW,292,0.0,0.0,51,0.00,CLR,,0.00,WeatherDisplay:10.37,2013-07-11 20:32:00,
2013-07-11 16:37:00,78.8,58.6,29.86,NW,315,0.0,0.0,50,0.00,CLR,,0.00,WeatherDisplay:10.37,2013-07-11 20:37:00,
2013-07-11 16:42:00,78.4,60.4,29.85,SE,135,0.0,1.1,54,0.00,CLR,,0.00,WeatherDisplay:10.37,2013-07-11 20:42:00,
2013-07-11 16:47:00,79.5,60.4,29.85,West,270,0.0,0.7,52,0.00,CLR,,0.00,WeatherDisplay:10.37,2013-07-11 20:47:00,
2013-07-11 16:52:00,79.7,58.8,29.85,West,270,0.0,0.0,49,0.00,CLR,,0.00,WeatherDisplay:10.37,2013-07-11 20:52:00,
2013-07-11 16:58:00,79.2,60.6,29.85,East,90,0.0,1.1,53,0.00,CLR,,0.00,WeatherDisplay:10.37,2013-07-11 20:58:00,
2013-07-11 17:03:00,79.3,60.2,29.85,North,0,0.0,0.0,52,0.00,CLR,,0.00,WeatherDisplay:10.37,2013-07-11 21:03:00,
2013-07-11 17:08:00,79.5,60.4,29.84,North,0,0.0,1.1,52,0.00,CLR,,0.00,WeatherDisplay:10.37,2013-07-11 21:08:00,
2013-07-11 17:13:00,79.9,59.0,29.85,NW,315,0.0,0.0,49,0.00,CLR,,0.00,WeatherDisplay:10.37,2013-07-11 21:13:00,
2013-07-11 17:18:00,80.4,61.2,29.85,North,0,0.0,0.0,52,0.00,CLR,,0.00,WeatherDisplay:10.37,2013-07-11 21:18:00,
2013-07-11 17:23:00,80.6,59.7,29.84,South,180,0.0,0.0,49,0.00,CLR,,0.00,WeatherDisplay:10.37,2013-07-11 21:23:00,
2013-07-11 17:28:00,80.1,59.7,29.84,West,270,0.0,0.0,50,0.00,CLR,,0.00,WeatherDisplay:10.37,2013-07-11 21:28:00,
2013-07-11 17:33:00,79.7,60.5,29.84,SE,135,0.0,1.1,52,0.00,CLR,,0.00,WeatherDisplay:10.37,2013-07-11 21:33:00,
2013-07-11 17:39:00,80.1,59.7,29.84,SW,225,0.0,1.1,50,0.00,CLR,,0.00,WeatherDisplay:10.37,2013-07-11 21:39:00,
2013-07-11 17:44:00,80.2,58.8,29.84,North,0,0.0,1.1,48,0.00,CLR,,0.00,WeatherDisplay:10.37,2013-07-11 21:44:00,
2013-07-11 17:49:00,80.1,58.6,29.84,North,0,0.0,1.1,48,0.00,CLR,,0.00,WeatherDisplay:10.37,2013-07-11 21:49:00,
2013-07-11 17:55:00,79.5,57.5,29.84,West,270,0.0,1.1,47,0.00,CLR,,0.00,WeatherDisplay:10.37,2013-07-11 21:55:00,
2013-07-11 18:00:00,79.5,58.7,29.83,West,270,0.0,1.1,49,0.00,CLR,,0.00,WeatherDisplay:10.37,2013-07-11 22:00:00,
2013-07-11 18:06:00,79.7,57.7,29.83,West,270,0.0,0.0,47,0.00,CLR,,0.00,WeatherDisplay:10.37,2013-07-11 22:06:00,
2013-07-11 18:11:00,79.9,57.8,29.83,West,270,0.0,1.1,47,0.00,CLR,,0.00,WeatherDisplay:10.37,2013-07-11 22:11:00,
2013-07-11 18:16:00,80.2,56.3,29.83,West,270,0.0,1.1,44,0.00,CLR,,0.00,WeatherDisplay:10.37,2013-07-11 22:16:00,
2013-07-11 18:21:00,79.7,55.2,29.83,West,270,0.0,1.1,43,0.00,CLR,,0.00,WeatherDisplay:10.37,2013-07-11 22:21:00,
2013-07-11 18:26:00,79.5,55.1,29.82,NW,315,0.0,1.7,43,0.00,CLR,,0.00,WeatherDisplay:10.37,2013-07-11 22:26:00,
2013-07-11 18:31:00,79.3,55.5,29.82,NW,315,0.0,1.1,44,0.00,CLR,,0.00,WeatherDisplay:10.37,2013-07-11 22:31:00,
2013-07-11 18:37:00,79.0,54.6,29.82,NW,315,0.0,1.7,43,0.00,CLR,,0.00,WeatherDisplay:10.37,2013-07-11 22:37:00,
2013-07-11 18:42:00,78.3,55.2,29.82,North,0,0.0,2.3,45,0.00,CLR,,0.00,WeatherDisplay:10.37,2013-07-11 22:42:00,
2013-07-11 18:47:00,78.1,56.2,29.81,NW,315,0.7,2.3,47,0.00,CLR,,0.00,WeatherDisplay:10.37,2013-07-11 22:47:00,
2013-07-11 18:52:00,77.7,55.9,29.81,West,270,0.0,3.5,47,0.00,CLR,,0.00,WeatherDisplay:10.37,2013-07-11 22:52:00,
2013-07-11 18:57:00,77.7,55.3,29.82,West,270,0.0,3.5,46,0.00,CLR,,0.00,WeatherDisplay:10.37,2013-07-11 22:57:00,
2013-07-11 19:03:00,78.3,57.5,29.81,West,270,0.0,2.4,49,0.00,CLR,,0.00,WeatherDisplay:10.37,2013-07-11 23:03:00,
2013-07-11 19:08:00,78.8,56.9,29.82,West,270,0.0,1.1,47,0.00,CLR,,0.00,WeatherDisplay:10.37,2013-07-11 23:08:00,
2013-07-11 19:14:00,78.4,57.1,29.81,SSW,202,0.0,1.1,48,0.00,CLR,,0.00,WeatherDisplay:10.37,2013-07-11 23:14:00,
2013-07-11 19:19:00,78.6,57.9,29.81,West,270,0.0,1.7,49,0.00,CLR,,0.00,WeatherDisplay:10.37,2013-07-11 23:19:00,
2013-07-11 19:25:00,78.3,56.4,29.81,West,270,0.0,0.0,47,0.00,CLR,CLR,0.00,WeatherDisplay:10.37,2013-07-11 23:25:00,
2013-07-11 19:30:00,77.7,55.3,29.81,West,272,0.0,0.0,46,0.00,CLR,CLR,0.00,WeatherDisplay:10.37,2013-07-11 23:30:00,
2013-07-11 19:35:00,77.1,55.9,29.80,NNW,332,0.0,0.0,48,0.00,CLR,CLR,0.00,WeatherDisplay:10.37,2013-07-11 23:35:00,
2013-07-11 19:40:00,77.0,56.4,29.80,NW,315,0.0,1.1,49,0.00,CLR,,0.00,WeatherDisplay:10.37,2013-07-11 23:40:00,
2013-07-11 19:45:00,77.0,55.2,29.81,North,0,0.0,0.9,47,0.00,CLR,,0.00,WeatherDisplay:10.37,2013-07-11 23:45:00,
2013-07-11 19:50:00,76.6,56.0,29.81,North,0,0.0,1.1,49,0.00,CLR,,0.00,WeatherDisplay:10.37,2013-07-11 23:50:00,
2013-07-11 19:56:00,76.6,56.0,29.81,North,0,0.0,2.3,49,0.00,CLR,,0.00,WeatherDisplay:10.37,2013-07-11 23:56:00,
2013-07-11 20:01:00,76.3,56.8,29.81,North,0,0.0,2.3,51,0.00,CLR,,0.00,WeatherDisplay:10.37,2013-07-12 00:01:00,
2013-07-11 20:07:00,76.3,57.4,29.81,NW,315,0.7,2.3,52,0.00,CLR,,0.00,WeatherDisplay:10.37,2013-07-12 00:07:00,
2013-07-11 20:12:00,75.6,56.7,29.81,NW,315,2.4,3.5,52,0.00,CLR,,0.00,WeatherDisplay:10.37,2013-07-12 00:12:00,
2013-07-11 20:17:00,75.4,57.1,29.81,NW,315,1.7,3.5,53,0.00,CLR,,0.00,WeatherDisplay:10.37,2013-07-12 00:17:00,
2013-07-11 20:22:00,75.2,56.9,29.81,North,0,4.0,4.8,53,0.00,CLR,,0.00,WeatherDisplay:10.37,2013-07-12 00:22:00,
2013-07-11 20:27:00,74.1,56.4,29.81,NW,315,2.4,4.7,54,0.00,CLR,,0.00,WeatherDisplay:10.37,2013-07-12 00:27:00,
2013-07-11 20:33:00,73.0,56.4,29.81,WNW,292,0.0,3.5,56,0.00,CLR,,0.00,WeatherDisplay:10.37,2013-07-12 00:33:00,
2013-07-11 20:38:00,72.1,56.1,29.82,West,270,1.7,3.5,57,0.00,CLR,,0.00,WeatherDisplay:10.37,2013-07-12 00:38:00,
2013-07-11 20:43:00,71.4,56.3,29.83,NW,315,0.0,0.0,59,0.00,CLR,,0.00,WeatherDisplay:10.37,2013-07-12 00:43:00,
2013-07-11 20:48:00,70.7,56.6,29.83,North,0,2.0,4.8,61,0.00,CLR,,0.00,WeatherDisplay:10.37,2013-07-12 00:48:00,
2013-07-11 20:53:00,70.2,56.5,29.84,North,0,2.0,2.3,62,0.00,CLR,,0.00,WeatherDisplay:10.37,2013-07-12 00:53:00,
2013-07-11 20:58:00,69.8,56.6,29.84,NE,45,4.0,5.8,63,0.00,CLR,,0.00,WeatherDisplay:10.37,2013-07-12 00:58:00,
2013-07-11 21:03:00,69.4,57.2,29.84,West,270,0.7,2.3,65,0.00,CLR,,0.00,WeatherDisplay:10.37,2013-07-12 01:03:00,
2013-07-11 21:09:00,69.1,57.2,29.85,West,270,0.0,3.5,66,0.00,CLR,,0.00,WeatherDisplay:10.37,2013-07-12 01:09:00,
2013-07-11 21:15:00,68.7,56.9,29.85,West,270,0.0,0.0,66,0.00,CLR,CLR,0.00,WeatherDisplay:10.37,2013-07-12 01:15:00,
2013-07-11 21:20:00,68.2,56.8,29.85,SW,225,0.0,1.1,67,0.00,CLR,,0.00,WeatherDisplay:10.37,2013-07-12 01:20:00,
2013-07-11 21:26:00,67.6,57.1,29.86,North,0,0.0,1.1,69,0.00,CLR,,0.00,WeatherDisplay:10.37,2013-07-12 01:26:00,
2013-07-11 21:31:00,67.3,56.8,29.86,West,270,0.0,0.0,69,0.00,CLR,,0.00,WeatherDisplay:10.37,2013-07-12 01:31:00,
2013-07-11 21:36:00,66.9,56.8,29.85,West,270,0.0,1.1,70,0.00,CLR,,0.00,WeatherDisplay:10.37,2013-07-12 01:36:00,
2013-07-11 21:41:00,66.6,56.9,29.85,West,270,0.0,0.0,71,0.00,CLR,,0.00,WeatherDisplay:10.37,2013-07-12 01:41:00,
2013-07-11 21:46:00,66.2,56.9,29.85,West,270,0.0,1.1,72,0.00,CLR,,0.00,WeatherDisplay:10.37,2013-07-12 01:46:00,
2013-07-11 21:52:00,65.8,57.3,29.85,SW,225,0.0,0.0,74,0.00,CLR,,0.00,WeatherDisplay:10.37,2013-07-12 01:52:00,
2013-07-11 21:57:00,65.5,57.3,29.85,SW,225,0.0,1.1,75,0.00,CLR,,0.00,WeatherDisplay:10.37,2013-07-12 01:57:00,
2013-07-11 22:02:00,65.3,57.2,29.85,SW,225,0.0,1.1,75,0.00,CLR,,0.00,WeatherDisplay:10.37,2013-07-12 02:02:00,
2013-07-11 22:07:00,64.8,57.0,29.86,SW,225,0.0,0.0,76,0.00,CLR,,0.00,WeatherDisplay:10.37,2013-07-12 02:07:00,
2013-07-11 22:12:00,64.6,57.2,29.86,SW,225,0.0,0.0,77,0.00,CLR,,0.00,WeatherDisplay:10.37,2013-07-12 02:12:00,
2013-07-11 22:17:00,64.4,57.0,29.86,SW,225,0.0,0.0,77,0.00,CLR,,0.00,WeatherDisplay:10.37,2013-07-12 02:17:00,
2013-07-11 22:22:00,64.2,57.2,29.86,SW,225,0.0,0.0,78,0.00,CLR,,0.00,WeatherDisplay:10.37,2013-07-12 02:22:00,
2013-07-11 22:28:00,63.9,56.9,29.87,SW,225,0.0,0.0,78,0.00,CLR,,0.00,WeatherDisplay:10.37,2013-07-12 02:28:00,
2013-07-11 22:33:00,63.5,56.9,29.86,SW,225,0.0,0.0,79,0.00,CLR,,0.00,WeatherDisplay:10.37,2013-07-12 02:33:00,
2013-07-11 22:38:00,63.5,57.2,29.86,SW,225,0.0,0.0,80,0.00,CLR,,0.00,WeatherDisplay:10.37,2013-07-12 02:38:00,
2013-07-11 22:43:00,63.3,57.4,29.87,SW,225,0.0,0.0,81,0.00,CLR,,0.00,WeatherDisplay:10.37,2013-07-12 02:43:00,
2013-07-11 22:48:00,63.1,57.2,29.87,SW,225,0.0,0.0,81,0.00,CLR,,0.00,WeatherDisplay:10.37,2013-07-12 02:48:00,
2013-07-11 22:53:00,63.0,57.4,29.87,SW,225,0.0,0.0,82,0.00,CLR,,0.00,WeatherDisplay:10.37,2013-07-12 02:53:00,
2013-07-11 22:59:00,62.8,57.2,29.87,SW,225,0.0,0.0,82,0.00,CLR,,0.00,WeatherDisplay:10.37,2013-07-12 02:59:00,
2013-07-11 23:04:00,62.4,57.5,29.87,SW,225,0.0,0.0,84,0.00,CLR,,0.00,WeatherDisplay:10.37,2013-07-12 03:04:00,
2013-07-11 23:10:00,62.4,57.8,29.87,SW,225,0.0,0.0,85,0.00,CLR,CLR,0.00,WeatherDisplay:10.37,2013-07-12 03:10:00,
2013-07-11 23:15:00,62.2,58.0,29.87,SW,225,0.0,0.0,86,0.00,CLR,CLR,0.00,WeatherDisplay:10.37,2013-07-12 03:15:00,
2013-07-11 23:20:00,61.9,58.0,29.88,SW,225,0.0,0.0,87,0.00,CLR,,0.00,WeatherDisplay:10.37,2013-07-12 03:20:00,
2013-07-11 23:25:00,61.5,57.9,29.88,SW,225,0.0,0.0,88,0.00,CLR,,0.00,WeatherDisplay:10.37,2013-07-12 03:25:00,
2013-07-11 23:30:00,61.2,57.6,29.88,SW,225,0.0,0.0,88,0.00,CLR,,0.00,WeatherDisplay:10.37,2013-07-12 03:30:00,
2013-07-11 23:35:00,60.8,57.2,29.88,SW,225,0.0,0.0,88,0.00,CLR,,0.00,WeatherDisplay:10.37,2013-07-12 03:35:00,
2013-07-11 23:41:00,60.6,57.4,29.88,SW,225,0.0,0.0,89,0.00,CLR,,0.00,WeatherDisplay:10.37,2013-07-12 03:41:00,
2013-07-11 23:46:00,60.4,57.5,29.88,SW,225,0.0,0.0,90,0.00,CLR,,0.00,WeatherDisplay:10.37,2013-07-12 03:46:00,
2013-07-11 23:51:00,60.3,57.6,29.88,SW,225,0.0,0.0,91,0.00,CLR,,0.00,WeatherDisplay:10.37,2013-07-12 03:51:00,
2013-07-11 23:56:00,60.3,57.9,29.88,SW,225,0.0,0.0,92,0.00,CLR,,0.00,WeatherDisplay:10.37,2013-07-12 03:56:00,